Aérodrome :
LOGIN :

S'inscrire | Disclaimer

   EN    FR    IT 

 










Légende :    VFR   VFR Marginal   IFR   IFR Intensif   IFR Très Intensif
Visi : 
Plafond : 
>= 8 km
>= 3000ft
5 à 8 km
1000 à 3000 ft
1500m à 5 km
500 à 1000 ft
800 à 1500m
200 à 500 ft
< 800m
< 200 ft
Symboles :   Orages  Brouillard  Fortes neiges  Fortes précipitations  Vent > 20 kt
SIGMETs :   Divers  Orages  Givrage  Turbulence  Onde Orograph.  Cendres Volcan.







- Altitude de l'aérodrome : 160 ft
- Code IATA : FMO


EDDG - Münster Osnabrück Int.

DERNIER METAR :
  • 211120Z 24010KT 200V270 9999 SCT028 14/07 Q1034 NOSIG

METARs EXPIRÉS :
  • 211050Z 25009KT 9999 SCT027 13/07 Q1034 NOSIG
  • 211020Z 24009KT 200V270 9999 FEW025 14/07 Q1034 NOSIG
  • 210950Z 22008KT 190V250 9999 FEW026 13/07 Q1034 NOSIG
  • 210920Z 22008KT 9999 FEW026 12/07 Q1034 NOSIG
  • 210850Z 22006KT 180V250 9999 FEW026 12/06 Q1034 NOSIG

TAF TAF EDDG
Valide du 21 à 12h jusqu'au 22 à 12h UTC


211100Z 2112/2212 24009KT 9999 FEW025
BECMG 2115/2118 VRB02KT
BECMG 2123/2201 2500 BR
PROB30
TEMPO 2202/2207 0400 FG
BECMG 2207/2210 9999
Pas de NOTAMs connus pour ce terrain.



MET'MAP, la Météo Aéronautique d'un coup d'oeil ! - Copyright ORBIFLY Décembre 2007 - Disclaimer

ORBIFLY MET'MAP TEAM :

Programmation & Développement : Alexandra Zaïnal
Conception & Développement : Baudouin d'Aumeries
Co-Programmation & Développement : Marc-Olivier Méhu
Soutien technique & logistique : Manuel Goepfert

Contact : metmap@orbifly.com




SOURCES & CREDITS :

   NOAA